• Join FlightAware (Why Join?)
  • Login
  • US Flag 
02:15AM EDT


 

Airport Tracker/Info


-or-


 

Live Flight TrackerFlight Track Log ✈ G52651 ✈ 17-May-2014 ✈ ZGNN / NNG - ZGWZ / WUZ

Flight Track Log - Related Links

Times and Time Zones

All times are in EDT time to prevent confusion due to time zone crossing. See the G52651 flight status page for this flight to view local times or setup timezone preferences in your user account.

Time Position Orientation Groundspeed Altitude Reporting Facility
EDT Latitude Longitude Course Direction KTS MPH feet Rate Location/Type
09:35PM 22.7359 108.6193 73° East  Level Estimated
09:36PM 22.7570 108.6938 73° East  Level Estimated
09:37PM 22.7781 108.7684 73° East  Level Estimated
09:38PM 22.7992 108.8430 73° East  Level Estimated
09:39PM 22.8161 108.9030 73° East  Level Estimated
09:40PM 22.8330 108.9630 73° East  Level Estimated
09:41PM 22.8499 109.0230 73° East  Level Estimated
09:42PM 22.8668 109.0831 73° East  Level Estimated
09:43PM 22.8836 109.1431 73° East  Level Estimated
09:44PM 22.9004 109.2032 73° East  Level Estimated
09:45PM 22.9172 109.2633 73° East  Level Estimated
09:46PM 22.9340 109.3234 73° East  Level Estimated
09:47PM 22.9507 109.3835 73° East  Level Estimated
09:48PM 22.9674 109.4436 73° East  Level Estimated
09:49PM 22.9841 109.5037 73° East  Level Estimated
09:50PM 23.0008 109.5639 73° East  Level Estimated
09:51PM 23.0174 109.6241 73° East  Level Estimated
09:52PM 23.0341 109.6842 73° East  Level Estimated
09:53PM 23.0507 109.7445 73° East  Level Estimated
09:54PM 23.0672 109.8047 73° East  Level Estimated
09:55PM 23.0838 109.8649 73° East  Level Estimated
09:56PM 23.1003 109.9251 73° East  Level Estimated
09:57PM 23.1168 109.9854 73° East  Level Estimated
09:58PM 23.1333 110.0457 73° East  Level Estimated
09:59PM 23.1498 110.1059 73° East  Level Estimated
10:00PM 23.1663 110.1663 73° East  Level Estimated
10:01PM 23.1827 110.2266 73° East  Level Estimated
10:02PM 23.1991 110.2869 74° East  Level Estimated
10:03PM 23.2155 110.3473 74° East  Level Estimated
10:04PM 23.2318 110.4076 74° East  Level Estimated
10:05PM 23.2481 110.4680 74° East  Level Estimated
10:06PM 23.2644 110.5284 74° East  Level Estimated
10:07PM 23.2807 110.5888 74° East  Level Estimated
10:08PM 23.2970 110.6492 74° East  Level Estimated
10:09PM 23.3132 110.7096 74° East  Level Estimated
10:10PM 23.3294 110.7701 74° East  Level Estimated
10:11PM 23.3456 110.8306 74° East  Level Estimated
10:12PM 23.3618 110.8910 74° East  Level Estimated
10:13PM 23.3779 110.9515 74° East  Level Estimated
10:14PM 23.3941 111.0120 74° East  Level Estimated
10:15PM 23.4102 111.0726 74° East  Level Estimated
10:16PM 23.4262 111.1331 74° East  Level Estimated
10:17PM 23.4423 111.1936 74° East  Level Estimated
10:18PM 23.4567 111.2481 74° East  Level Estimated
10:19PM 23.4567 111.2481 North  Level Estimated
10:20PM 23.4567 111.2481 North  Level Estimated
10:21PM 23.4567 111.2481 North  Level Estimated
10:22PM 23.4567 111.2481 North  Level Estimated
10:23PM 23.4567 111.2481 North  Level Estimated
10:24PM 23.4567 111.2481 North  Level Estimated
10:25PM 23.4567 111.2481 North  Level Estimated
10:26PM 23.4567 111.2481 North  Level Estimated
10:27PM 23.4567 111.2481 North  Level Estimated
10:28PM 23.4567 111.2481 North  Level Estimated
10:29PM 23.4567 111.2481 North  Level Estimated
10:30PM 23.4567 111.2481 North  Level Estimated
10:31PM 23.4567 111.2481 North  Level Estimated
10:32PM 23.4567 111.2481 North  Level Estimated
10:33PM 23.4567 111.2481 North  Level Estimated
10:34PM 23.4567 111.2481 North  Level Estimated
10:35PM 23.4567 111.2481 North  Level Estimated
10:36PM 23.4567 111.2481 North  Level Estimated